Flight Track Log - Related Links

Times and Time Zones

All times are in EDT time to prevent confusion due to time zone crossing. See the TAM3893 flight status page for this flight to view local times or setup timezone preferences in your user account.

Time Position Orientation Groundspeed Altitude Reporting Facility
EDT Latitude Longitude Course Direction KTS MPH feet Rate Location/Type
Sun 02:02:00 PM -9.9381 -36.2789 216° Southwest  Level Estimated
Sun 02:03:00 PM -9.9857 -36.3148 217° Southwest  Level Estimated
Sun 02:04:00 PM -10.0333 -36.3507 217° Southwest  Level Estimated
Sun 02:05:00 PM -10.0809 -36.3865 217° Southwest  Level Estimated
Sun 02:06:00 PM -10.1285 -36.4224 217° Southwest  Level Estimated
Sun 02:07:00 PM -10.1761 -36.4584 217° Southwest  Level Estimated
Sun 02:08:00 PM -10.2236 -36.4943 217° Southwest  Level Estimated
Sun 02:09:00 PM -10.2712 -36.5302 217° Southwest  Level Estimated
Sun 02:10:00 PM -10.3188 -36.5662 217° Southwest  Level Estimated
Sun 02:11:00 PM -10.3664 -36.6021 217° Southwest  Level Estimated
Sun 02:12:00 PM -10.4139 -36.6381 217° Southwest  Level Estimated
Sun 02:13:00 PM -10.4615 -36.6741 217° Southwest  Level Estimated
Sun 02:14:00 PM -10.5090 -36.7101 217° Southwest  Level Estimated
Sun 02:15:00 PM -10.5566 -36.7461 217° Southwest  Level Estimated
Sun 02:16:00 PM -10.6041 -36.7821 217° Southwest  Level Estimated
Sun 02:17:00 PM -10.6517 -36.8181 217° Southwest  Level Estimated
Sun 02:18:00 PM -10.6992 -36.8541 217° Southwest  Level Estimated
Sun 02:19:00 PM -10.7467 -36.8902 217° Southwest  Level Estimated
Sun 02:20:00 PM -10.7943 -36.9262 217° Southwest  Level Estimated
Sun 02:21:00 PM -10.8418 -36.9623 217° Southwest  Level Estimated
Sun 02:22:00 PM -10.8893 -36.9984 217° Southwest  Level Estimated
Sun 02:23:00 PM -10.9368 -37.0345 217° Southwest  Level Estimated
Sun 02:24:00 PM -10.9840 -37.0703 217° Southwest  Level Estimated
Sun 02:25:00 PM -10.9840 -37.0703 270° West  Level Estimated
Sun 02:26:00 PM -10.9840 -37.0703 270° West  Level Estimated
Sun 02:27:00 PM -10.9840 -37.0703 270° West  Level Estimated
Sun 02:28:00 PM -10.9840 -37.0703 270° West  Level Estimated
Sun 02:29:00 PM -10.9840 -37.0703 270° West  Level Estimated
Sun 02:30:00 PM -10.9840 -37.0703 270° West  Level Estimated
Sun 02:31:00 PM -10.9840 -37.0703 270° West  Level Estimated
Sun 02:32:00 PM -10.9840 -37.0703 270° West  Level Estimated
Sun 02:33:00 PM -10.9840 -37.0703 270° West  Level Estimated
Sun 02:34:00 PM -10.9840 -37.0703 270° West  Level Estimated
Sun 02:35:00 PM -10.9840 -37.0703 270° West  Level Estimated
Sun 02:36:00 PM -10.9840 -37.0703 270° West  Level Estimated
Sun 02:37:00 PM -10.9840 -37.0703 270° West  Level Estimated
Sun 02:38:00 PM -10.9840 -37.0703 270° West  Level Estimated
Sun 02:39:00 PM -10.9840 -37.0703 270° West  Level Estimated
Sun 02:40:00 PM -10.9840 -37.0703 270° West  Level Estimated

Login

Don't have an account? Register now (free) for customized features, flight alerts, and more!